Time;durP1;ratioP1;P1;durP2;ratioP2;P2;SDS_P1;SDS_P2;PMS_P1;PMS_P2;Temp;Humidity;BMP_temperature;BMP_pressure;BME280_temperature;BME280_humidity;BME280_pressure;Samples;Min_cycle;Max_cycle;Signal;HPM_P1;HPM_P2
2021/12/16 00:04:02;;;;;;;;;;;;;;;;;;5171517;27;20142;-67
2021/12/16 00:07:01;;;;;;;164.60;30.80;;;;;;;;;;5171090;27;43831;-68
2021/12/16 00:34:11;;;;;;;186.18;30.25;;;;;;;;;;5170391;27;20046;-67
2021/12/16 00:36:42;;;;;;;173.50;31.67;;;;;;;;;;5166708;27;20051;-69
2021/12/16 00:39:12;;;;;;;208.52;30.67;;;;;;;;;;5149485;27;20505;-67
2021/12/16 00:41:40;;;;;;;157.20;28.95;;;;;;;;;;5150180;27;20120;-67
2021/12/16 00:44:19;;;;;;;220.13;29.75;;;;;;;;;;5153659;27;20142;-69
2021/12/16 00:46:59;;;;;;;;;;;;;;;;;;5150319;27;20051;-67
2021/12/16 00:54:39;;;;;;;130.25;27.33;;;;;;;;;;5149778;27;20057;-70
2021/12/16 00:57:11;;;;;;;125.30;27.30;;;;;;;;;;5150270;27;20528;-69
2021/12/16 00:59:41;;;;;;;217.80;32.40;;;;;;;;;;5149373;27;20446;-70
2021/12/16 01:07:22;;;;;;;164.98;29.42;;;;;;;;;;5150176;27;20061;-70
2021/12/16 01:37:30;;;;;;;184.52;26.02;;;;;;;;;;5158225;27;20059;-69
2021/12/16 01:50:43;;;;;;;189.25;26.38;;;;;;;;;;5158290;27;20058;-68
2021/12/16 01:56:15;;;;;;;132.73;23.55;;;;;;;;;;5118586;27;20046;-67
2021/12/16 01:58:41;;;;;;;103.88;22.67;;;;;;;;;;5157540;27;20047;-68
2021/12/16 02:01:15;;;;;;;175.77;25.48;;;;;;;;;;5170052;27;20055;-68
2021/12/16 02:03:47;;;;;;;146.77;22.42;;;;;;;;;;5172245;27;20051;-68
2021/12/16 02:09:20;;;;;;;108.22;24.20;;;;;;;;;;5164776;27;20039;-71
2021/12/16 02:31:05;;;;;;;163.00;24.77;;;;;;;;;;5161841;27;20057;-69
2021/12/16 02:34:14;;;;;;;193.80;24.27;;;;;;;;;;5168144;27;20055;-68
2021/12/16 02:39:06;;;;;;;108.75;20.20;;;;;;;;;;5164824;27;20056;-69
2021/12/16 02:41:32;;;;;;;115.35;19.85;;;;;;;;;;5149898;27;20158;-68
2021/12/16 02:49:31;;;;;;;90.72;20.17;;;;;;;;;;5168792;27;20089;-69
2021/12/16 02:51:57;;;;;;;85.97;18.73;;;;;;;;;;5172914;27;20492;-69
2021/12/16 02:54:25;;;;;;;97.25;20.15;;;;;;;;;;5159711;27;20051;-69
2021/12/16 02:56:52;;;;;;;89.35;20.10;;;;;;;;;;5151764;27;20053;-70
2021/12/16 02:59:22;;;;;;;99.50;20.73;;;;;;;;;;5154664;27;20051;-71
2021/12/16 03:01:52;;;;;;;78.57;19.27;;;;;;;;;;5172075;27;20090;-70
2021/12/16 03:04:19;;;;;;;100.40;20.77;;;;;;;;;;5163240;27;20421;-70
2021/12/16 03:06:47;;;;;;;84.53;18.88;;;;;;;;;;5150851;27;20047;-70
2021/12/16 03:09:16;;;;;;;76.73;19.87;;;;;;;;;;5155941;27;20602;-70
2021/12/16 03:12:37;;;;;;;109.32;20.00;;;;;;;;;;5167828;27;20271;-69
2021/12/16 03:14:46;;;;;;;159.93;19.88;;;;;;;;;;5148091;27;20051;-69
2021/12/16 03:17:32;;;;;;;131.98;20.15;;;;;;;;;;5159820;27;20047;-69
2021/12/16 03:20:06;;;;;;;129.70;23.52;;;;;;;;;;5154860;27;20135;-69
2021/12/16 03:25:28;;;;;;;132.65;22.00;;;;;;;;;;5151076;27;21244;-69
2021/12/16 03:28:26;;;;;;;85.97;18.60;;;;;;;;;;5154222;27;20613;-70
2021/12/16 03:36:13;;;;;;;154.50;24.50;;;;;;;;;;5169983;27;20047;-70
2021/12/16 03:38:40;;;;;;;184.77;24.10;;;;;;;;;;5170301;27;20047;-70
2021/12/16 03:41:07;;;;;;;167.05;21.67;;;;;;;;;;5153651;27;20047;-69
2021/12/16 03:43:35;;;;;;;102.82;19.67;;;;;;;;;;5156096;27;20052;-70
2021/12/16 03:48:46;;;;;;;122.43;21.55;;;;;;;;;;5150786;27;20131;-69
2021/12/16 03:51:15;;;;;;;67.35;18.50;;;;;;;;;;5152211;27;20059;-70
2021/12/16 03:53:43;;;;;;;99.22;20.60;;;;;;;;;;5151347;27;20055;-70
2021/12/16 03:56:10;;;;;;;115.07;20.38;;;;;;;;;;5150792;27;20616;-70
2021/12/16 03:58:37;;;;;;;219.88;25.40;;;;;;;;;;5159880;27;20050;-69
2021/12/16 04:01:07;;;;;;;95.47;21.92;;;;;;;;;;5158376;27;20051;-70
2021/12/16 04:03:33;;;;;;;147.30;24.60;;;;;;;;;;5151510;27;20055;-69
2021/12/16 04:06:00;;;;;;;177.55;25.70;;;;;;;;;;5153582;27;20555;-70
2021/12/16 04:08:26;;;;;;;151.60;23.20;;;;;;;;;;5167908;27;20135;-70
2021/12/16 04:11:02;;;;;;;218.63;24.85;;;;;;;;;;5160873;27;20051;-69
2021/12/16 04:13:29;;;;;;;136.55;22.35;;;;;;;;;;5150013;27;20055;-70
2021/12/16 04:15:55;;;;;;;131.95;23.17;;;;;;;;;;5160623;27;20042;-70
2021/12/16 04:18:21;;;;;;;131.93;22.45;;;;;;;;;;5169803;27;20054;-70
2021/12/16 04:20:48;;;;;;;88.13;20.23;;;;;;;;;;5161315;27;20781;-70
2021/12/16 04:23:15;;;;;;;138.40;22.95;;;;;;;;;;5164525;27;20063;-70
2021/12/16 04:25:43;;;;;;;134.38;20.13;;;;;;;;;;5151026;27;20061;-70
2021/12/16 04:28:13;;;;;;;102.82;19.90;;;;;;;;;;5149613;27;20055;-69
2021/12/16 04:30:40;;;;;;;148.25;21.40;;;;;;;;;;5165063;27;20061;-70
2021/12/16 04:33:07;;;;;;;80.93;18.85;;;;;;;;;;5161692;27;20042;-70
2021/12/16 04:35:34;;;;;;;78.72;18.23;;;;;;;;;;5168554;27;20056;-70
2021/12/16 04:38:00;;;;;;;83.38;17.77;;;;;;;;;;5170807;27;20078;-70
2021/12/16 04:40:28;;;;;;;104.55;20.75;;;;;;;;;;5170033;27;20054;-70
2021/12/16 04:43:00;;;;;;;59.72;16.63;;;;;;;;;;5170134;27;20051;-70
2021/12/16 04:45:27;;;;;;;76.53;16.80;;;;;;;;;;5164626;27;20065;-70
2021/12/16 04:47:53;;;;;;;76.32;17.83;;;;;;;;;;5160164;27;20047;-70
2021/12/16 04:50:20;;;;;;;71.97;17.27;;;;;;;;;;5155982;27;20530;-69
2021/12/16 04:52:46;;;;;;;97.88;17.83;;;;;;;;;;5163739;27;20130;-69
2021/12/16 04:55:13;;;;;;;83.88;17.88;;;;;;;;;;5161960;27;20051;-70
2021/12/16 04:57:40;;;;;;;68.85;17.25;;;;;;;;;;5160759;27;20058;-70
2021/12/16 05:00:08;;;;;;;70.15;16.02;;;;;;;;;;5164120;27;20055;-70
2021/12/16 05:02:35;;;;;;;;;;;;;;;;;;5170333;27;20066;-69
2021/12/16 05:05:02;;;;;;;87.78;17.65;;;;;;;;;;5157177;27;45462;-69
2021/12/16 05:07:28;;;;;;;52.50;15.43;;;;;;;;;;5149421;27;20602;-70
2021/12/16 05:12:24;;;;;;;73.22;17.15;;;;;;;;;;5157873;27;20055;-70
2021/12/16 05:14:50;;;;;;;44.75;15.20;;;;;;;;;;5149425;27;20055;-69
2021/12/16 05:17:28;;;;;;;57.80;16.02;;;;;;;;;;5169051;27;20061;-70
2021/12/16 05:19:56;;;;;;;67.93;17.10;;;;;;;;;;5169306;27;20146;-70
2021/12/16 05:25:15;;;;;;;54.13;15.63;;;;;;;;;;5151534;27;20353;-69
2021/12/16 05:27:42;;;;;;;40.72;15.75;;;;;;;;;;5148266;27;20051;-70
2021/12/16 05:30:08;;;;;;;74.63;17.08;;;;;;;;;;5154834;27;20871;-69
2021/12/16 05:32:35;;;;;;;37.15;15.13;;;;;;;;;;5165614;27;20162;-70
2021/12/16 05:35:02;;;;;;;57.85;17.30;;;;;;;;;;5161847;27;20055;-70
2021/12/16 05:37:28;;;;;;;69.70;16.35;;;;;;;;;;5152592;27;20150;-70
2021/12/16 05:39:54;;;;;;;59.08;16.88;;;;;;;;;;5159352;27;20043;-70
2021/12/16 05:42:20;;;;;;;43.33;15.88;;;;;;;;;;5162552;27;20053;-70
2021/12/16 05:44:47;;;;;;;62.92;16.38;;;;;;;;;;5169673;27;20054;-70
2021/12/16 05:47:13;;;;;;;54.22;16.13;;;;;;;;;;5152361;27;20104;-70
2021/12/16 05:49:39;;;;;;;55.90;16.55;;;;;;;;;;5151953;27;20070;-70
2021/12/16 05:52:06;;;;;;;50.38;16.65;;;;;;;;;;5163716;27;20057;-71
2021/12/16 05:54:32;;;;;;;75.03;17.73;;;;;;;;;;5171790;27;20051;-69
2021/12/16 05:56:59;;;;;;;47.97;16.05;;;;;;;;;;5163387;27;20063;-70
2021/12/16 05:59:25;;;;;;;71.30;17.73;;;;;;;;;;5152109;27;20047;-70
2021/12/16 06:01:51;;;;;;;48.17;17.25;;;;;;;;;;5165728;27;20431;-70
2021/12/16 06:04:20;;;;;;;36.78;14.70;;;;;;;;;;5168236;27;20057;-70
2021/12/16 06:06:46;;;;;;;;;;;;;;;;;;5155986;27;20055;-70
2021/12/16 06:09:13;;;;;;;53.28;14.52;;;;;;;;;;5155261;27;44390;-70
2021/12/16 06:11:42;;;;;;;76.60;16.05;;;;;;;;;;5154555;27;20055;-70
2021/12/16 06:14:20;;;;;;;61.40;16.58;;;;;;;;;;5152324;27;20138;-69
2021/12/16 06:22:33;;;;;;;108.45;18.42;;;;;;;;;;5171699;27;20080;-69
2021/12/16 06:27:49;;;;;;;68.38;15.52;;;;;;;;;;5151094;27;20421;-69
2021/12/16 06:30:17;;;;;;;115.28;17.40;;;;;;;;;;5151802;27;20067;-69
2021/12/16 06:32:43;;;;;;;;;;;;;;;;;;5162069;27;20414;-68
2021/12/16 06:35:11;;;;;;;80.90;16.25;;;;;;;;;;5169032;27;43720;-69
2021/12/16 06:37:37;;;;;;;67.70;16.67;;;;;;;;;;5171565;27;20081;-68
2021/12/16 06:40:05;;;;;;;46.13;14.30;;;;;;;;;;5171614;27;20066;-68
2021/12/16 06:42:34;;;;;;;43.33;14.85;;;;;;;;;;5157931;27;20152;-68
2021/12/16 06:45:06;;;;;;;;;;;;;;;;;;5151567;27;20065;-69
2021/12/16 06:47:42;;;;;;;42.20;14.50;;;;;;;;;;5169029;27;44776;-69
2021/12/16 06:50:09;;;;;;;46.25;15.25;;;;;;;;;;5171868;27;20504;-68
2021/12/16 06:52:43;;;;;;;38.15;14.95;;;;;;;;;;5153504;27;20134;-68
2021/12/16 06:55:27;;;;;;;56.88;16.63;;;;;;;;;;5151949;27;20047;-69
2021/12/16 06:57:56;;;;;;;85.78;17.60;;;;;;;;;;5156544;27;20050;-68
2021/12/16 07:00:32;;;;;;;48.30;17.00;;;;;;;;;;5155895;27;20063;-70
2021/12/16 07:05:27;;;;;;;125.15;18.73;;;;;;;;;;5162613;27;20054;-68
2021/12/16 07:07:54;;;;;;;60.42;15.70;;;;;;;;;;5159959;27;20047;-68
2021/12/16 07:10:21;;;;;;;88.63;15.90;;;;;;;;;;5154792;27;20074;-69
2021/12/16 07:12:48;;;;;;;60.33;16.23;;;;;;;;;;5160474;27;20065;-69
2021/12/16 07:15:18;;;;;;;52.67;15.60;;;;;;;;;;5150405;27;20082;-69
2021/12/16 07:17:45;;;;;;;56.72;14.57;;;;;;;;;;5152787;27;20051;-68
2021/12/16 07:20:13;;;;;;;62.25;14.88;;;;;;;;;;5150456;27;20059;-69
2021/12/16 07:22:39;;;;;;;112.35;18.42;;;;;;;;;;5149712;27;20054;-69
2021/12/16 07:25:06;;;;;;;34.72;13.07;;;;;;;;;;5163064;27;20055;-69
2021/12/16 07:27:34;;;;;;;57.38;13.75;;;;;;;;;;5153528;27;20126;-69
2021/12/16 07:30:03;;;;;;;57.72;13.80;;;;;;;;;;5153963;27;20057;-69
2021/12/16 07:32:30;;;;;;;108.55;15.10;;;;;;;;;;5151147;27;20526;-68
2021/12/16 07:34:56;;;;;;;74.95;14.70;;;;;;;;;;5150720;27;20051;-69
2021/12/16 07:37:22;;;;;;;44.80;14.55;;;;;;;;;;5163147;27;20043;-68
2021/12/16 07:39:50;;;;;;;47.22;13.25;;;;;;;;;;5160562;27;20062;-68
2021/12/16 07:42:24;;;;;;;38.78;14.02;;;;;;;;;;5150380;27;20050;-68
2021/12/16 07:44:51;;;;;;;46.08;12.63;;;;;;;;;;5157623;27;20054;-68
2021/12/16 07:47:17;;;;;;;34.53;13.02;;;;;;;;;;5156695;27;20174;-68
2021/12/16 07:49:44;;;;;;;38.13;13.13;;;;;;;;;;5172428;27;20051;-68
2021/12/16 07:52:19;;;;;;;29.63;13.20;;;;;;;;;;5164948;27;20538;-68
2021/12/16 07:54:45;;;;;;;97.22;16.50;;;;;;;;;;5152317;27;20452;-69
2021/12/16 07:57:12;;;;;;;41.75;13.35;;;;;;;;;;5169762;27;20509;-69
2021/12/16 07:59:38;;;;;;;49.85;13.90;;;;;;;;;;5171772;27;20173;-69
2021/12/16 08:02:08;;;;;;;34.30;13.27;;;;;;;;;;5167825;27;20051;-69
2021/12/16 08:04:41;;;;;;;58.42;13.63;;;;;;;;;;5150210;27;20103;-69
2021/12/16 08:07:09;;;;;;;33.42;12.82;;;;;;;;;;5150318;27;20071;-69
2021/12/16 08:09:37;;;;;;;62.80;14.48;;;;;;;;;;5150768;27;20054;-71
2021/12/16 08:12:04;;;;;;;47.88;13.02;;;;;;;;;;5152306;27;20869;-69
2021/12/16 08:14:31;;;;;;;62.10;14.25;;;;;;;;;;5150195;27;20133;-69
2021/12/16 08:16:57;;;;;;;87.38;14.57;;;;;;;;;;5164491;27;20050;-69
2021/12/16 08:19:24;;;;;;;46.47;14.35;;;;;;;;;;5167133;27;20146;-69
2021/12/16 08:21:50;;;;;;;75.53;13.57;;;;;;;;;;5149653;27;20065;-68
2021/12/16 08:24:17;;;;;;;39.10;11.88;;;;;;;;;;5158310;27;20057;-69
2021/12/16 08:26:47;;;;;;;62.95;13.02;;;;;;;;;;5170616;27;20047;-68
2021/12/16 08:29:13;;;;;;;75.03;14.07;;;;;;;;;;5171206;27;20496;-69
2021/12/16 08:31:40;;;;;;;51.10;11.93;;;;;;;;;;5157720;27;20509;-69
2021/12/16 08:34:06;;;;;;;37.55;12.93;;;;;;;;;;5160780;27;20425;-68
2021/12/16 08:36:33;;;;;;;36.88;13.50;;;;;;;;;;5169479;27;20074;-68
2021/12/16 08:39:01;;;;;;;24.33;12.27;;;;;;;;;;5163252;27;20051;-68
2021/12/16 08:41:32;;;;;;;36.40;13.10;;;;;;;;;;5157698;27;20061;-69
2021/12/16 08:43:59;;;;;;;41.92;13.07;;;;;;;;;;5164660;27;20055;-68
2021/12/16 08:46:28;;;;;;;54.08;13.65;;;;;;;;;;5152647;27;20055;-68
2021/12/16 08:48:55;;;;;;;45.45;13.13;;;;;;;;;;5153933;27;20142;-68
2021/12/16 08:51:23;;;;;;;57.50;12.93;;;;;;;;;;5160115;27;20074;-68
2021/12/16 08:53:50;;;;;;;38.33;13.40;;;;;;;;;;5155510;27;20047;-69
2021/12/16 08:56:17;;;;;;;94.80;15.15;;;;;;;;;;5171104;27;20489;-68
2021/12/16 08:58:44;;;;;;;79.30;14.93;;;;;;;;;;5161618;27;20051;-69
2021/12/16 09:01:12;;;;;;;71.88;17.02;;;;;;;;;;5148586;27;20531;-69
2021/12/16 09:03:38;;;;;;;49.05;13.30;;;;;;;;;;5161635;27;20212;-68
2021/12/16 09:06:05;;;;;;;49.38;15.00;;;;;;;;;;5154999;27;20480;-69
2021/12/16 09:08:31;;;;;;;33.30;13.98;;;;;;;;;;5152176;27;20055;-68
2021/12/16 09:10:58;;;;;;;35.42;13.48;;;;;;;;;;5154051;27;20051;-68
2021/12/16 09:13:24;;;;;;;33.53;12.60;;;;;;;;;;5156041;27;20440;-68
2021/12/16 09:15:52;;;;;;;33.92;13.32;;;;;;;;;;5152974;27;20055;-69
2021/12/16 09:18:21;;;;;;;37.63;14.30;;;;;;;;;;5154384;27;20511;-69
2021/12/16 09:20:47;;;;;;;29.83;13.07;;;;;;;;;;5170283;27;20078;-69
2021/12/16 09:23:13;;;;;;;34.00;14.38;;;;;;;;;;5174019;27;21341;-69
2021/12/16 09:25:41;;;;;;;27.58;13.18;;;;;;;;;;5161747;27;20513;-68
2021/12/16 09:28:07;;;;;;;42.50;15.32;;;;;;;;;;5152626;27;20130;-68
2021/12/16 09:30:34;;;;;;;27.85;12.95;;;;;;;;;;5154827;27;20162;-67
2021/12/16 09:33:03;;;;;;;35.03;13.77;;;;;;;;;;5160220;27;20058;-69
2021/12/16 09:35:33;;;;;;;30.15;13.73;;;;;;;;;;5166777;27;20484;-66
2021/12/16 09:38:02;;;;;;;35.35;14.98;;;;;;;;;;5154263;27;20504;-66
2021/12/16 09:40:29;;;;;;;33.00;14.80;;;;;;;;;;5152448;27;20134;-66
2021/12/16 09:42:57;;;;;;;31.77;14.85;;;;;;;;;;5155628;27;20497;-66
2021/12/16 09:45:23;;;;;;;31.35;15.63;;;;;;;;;;5158756;27;20050;-67
2021/12/16 09:47:51;;;;;;;36.45;16.20;;;;;;;;;;5159182;27;20047;-66
2021/12/16 09:50:18;;;;;;;46.70;16.30;;;;;;;;;;5154347;27;20051;-68
2021/12/16 09:52:45;;;;;;;45.63;16.50;;;;;;;;;;5153171;27;20085;-66
2021/12/16 09:55:11;;;;;;;38.78;15.70;;;;;;;;;;5153353;27;20125;-66
2021/12/16 09:57:38;;;;;;;42.42;17.25;;;;;;;;;;5155380;27;20124;-67
2021/12/16 10:00:09;;;;;;;58.28;18.10;;;;;;;;;;5159884;27;20064;-67
2021/12/16 10:02:36;;;;;;;42.45;17.00;;;;;;;;;;5158087;27;20047;-67
2021/12/16 10:05:04;;;;;;;43.40;18.20;;;;;;;;;;5159589;27;20047;-67
2021/12/16 10:07:33;;;;;;;56.30;19.33;;;;;;;;;;5156749;27;20497;-67
2021/12/16 10:10:05;;;;;;;85.28;19.05;;;;;;;;;;5162779;27;20534;-67
2021/12/16 10:12:37;;;;;;;76.00;21.60;;;;;;;;;;5160933;27;20136;-67
2021/12/16 10:17:59;;;;;;;63.17;18.85;;;;;;;;;;5132867;27;20159;-67
2021/12/16 10:20:28;;;;;;;85.00;20.95;;;;;;;;;;5159864;27;20102;-67
2021/12/16 10:23:17;;;;;;;85.40;19.75;;;;;;;;;;5162828;27;20054;-67
2021/12/16 10:25:48;;;;;;;99.20;20.65;;;;;;;;;;5162336;27;20062;-67
2021/12/16 10:28:23;;;;;;;97.80;20.83;;;;;;;;;;5159892;27;20050;-67
2021/12/16 10:30:52;;;;;;;121.15;21.67;;;;;;;;;;5156333;27;20122;-67
2021/12/16 10:33:21;;;;;;;129.10;22.85;;;;;;;;;;5169636;27;20049;-67
2021/12/16 10:35:47;;;;;;;;;;;;;;;;;;5161421;27;20861;-67
2021/12/16 10:38:15;;;;;;;91.93;21.30;;;;;;;;;;5160759;27;43247;-67
2021/12/16 10:40:46;;;;;;;111.40;22.48;;;;;;;;;;5155283;27;20070;-67
2021/12/16 10:43:15;;;;;;;86.47;21.35;;;;;;;;;;5159093;27;20051;-67
2021/12/16 10:45:46;;;;;;;89.10;20.88;;;;;;;;;;5154238;27;20062;-67
2021/12/16 10:48:14;;;;;;;78.40;19.73;;;;;;;;;;5157597;27;20057;-67
2021/12/16 10:50:53;;;;;;;53.20;19.83;;;;;;;;;;5152612;27;20051;-67
2021/12/16 10:53:38;;;;;;;82.93;21.00;;;;;;;;;;5164436;27;20467;-67
2021/12/16 10:56:04;;;;;;;75.07;21.10;;;;;;;;;;5163508;27;20057;-67
2021/12/16 10:58:51;;;;;;;56.55;20.20;;;;;;;;;;5157467;27;20447;-67
2021/12/16 11:01:32;;;;;;;77.25;23.48;;;;;;;;;;5152634;27;20547;-67
2021/12/16 11:03:58;;;;;;;66.18;22.02;;;;;;;;;;5161014;27;20043;-67
2021/12/16 11:06:30;;;;;;;57.60;22.10;;;;;;;;;;5162018;27;20078;-67
2021/12/16 11:09:16;;;;;;;62.08;22.40;;;;;;;;;;5157955;27;20087;-67
2021/12/16 11:11:42;;;;;;;54.03;20.77;;;;;;;;;;5163932;27;20051;-67
2021/12/16 11:14:09;;;;;;;50.47;21.52;;;;;;;;;;5150379;27;20078;-67
2021/12/16 11:16:36;;;;;;;53.60;21.90;;;;;;;;;;5159341;27;20055;-68
2021/12/16 11:19:03;;;;;;;53.35;22.60;;;;;;;;;;5157153;27;20134;-68
2021/12/16 11:21:40;;;;;;;69.63;22.98;;;;;;;;;;5157634;27;20149;-67
2021/12/16 11:24:25;;;;;;;56.97;21.77;;;;;;;;;;5160077;27;20061;-67
2021/12/16 11:26:52;;;;;;;61.30;24.80;;;;;;;;;;5154382;27;20133;-68
2021/12/16 11:29:19;;;;;;;53.10;22.10;;;;;;;;;;5155354;27;20043;-66
2021/12/16 11:31:47;;;;;;;52.85;21.80;;;;;;;;;;5168129;27;20047;-67
2021/12/16 11:34:14;;;;;;;48.80;22.02;;;;;;;;;;5154712;27;20061;-68
2021/12/16 11:36:43;;;;;;;52.85;21.02;;;;;;;;;;5159376;27;20398;-68
2021/12/16 11:39:11;;;;;;;40.50;20.15;;;;;;;;;;5156904;27;20051;-68
2021/12/16 11:41:50;;;;;;;45.65;21.55;;;;;;;;;;5162343;27;20086;-69
2021/12/16 11:44:21;;;;;;;53.03;21.70;;;;;;;;;;5151567;27;20782;-68
2021/12/16 11:46:48;;;;;;;49.65;21.13;;;;;;;;;;5150477;27;20202;-68
2021/12/16 11:49:16;;;;;;;49.75;21.83;;;;;;;;;;5156549;27;20090;-68
2021/12/16 11:51:43;;;;;;;;;;;;;;;;;;5157149;27;20529;-68
2021/12/16 11:54:09;;;;;;;;;;;;;;;;;;5160675;27;44542;-68
2021/12/16 11:56:36;;;;;;;;;;;;;;;;;;5170995;27;43489;-68
2021/12/16 11:59:02;;;;;;;;;;;;;;;;;;5168943;27;43383;-67
2021/12/16 12:01:28;;;;;;;;;;;;;;;;;;5156713;27;44772;-67
2021/12/16 12:03:54;;;;;;;;;;;;;;;;;;5161809;27;43703;-67
2021/12/16 12:06:21;;;;;;;;;;;;;;;;;;5151111;27;42629;-69
2021/12/16 12:08:48;;;;;;;;;;;;;;;;;;5160391;27;44520;-68
2021/12/16 12:11:16;;;;;;;;;;;;;;;;;;5166072;27;42227;-68
2021/12/16 12:13:42;;;;;;;;;;;;;;;;;;5157811;27;45432;-69
2021/12/16 12:16:08;;;;;;;;;;;;;;;;;;5168300;27;43704;-68
2021/12/16 12:18:37;;;;;;;;;;;;;;;;;;5171472;27;44156;-69
2021/12/16 12:21:03;;;;;;;;;;;;;;;;;;5155193;27;46394;-68
2021/12/16 12:23:29;;;;;;;;;;;;;;;;;;5160273;27;44797;-68
2021/12/16 12:25:56;;;;;;;;;;;;;;;;;;5149792;27;45416;-68
2021/12/16 12:28:22;;;;;;;;;;;;;;;;;;5152171;27;44705;-68
2021/12/16 12:30:48;;;;;;;;;;;;;;;;;;5162265;27;43514;-67
2021/12/16 12:33:15;;;;;;;;;;;;;;;;;;5161518;27;45046;-68
2021/12/16 12:35:41;;;;;;;;;;;;;;;;;;5155513;27;35877;-68
2021/12/16 12:38:07;;;;;;;;;;;;;;;;;;5151603;27;45320;-68
2021/12/16 12:40:37;;;;;;;;;;;;;;;;;;5151822;27;46057;-68
2021/12/16 12:43:04;;;;;;;;;;;;;;;;;;5163098;27;43685;-69
2021/12/16 12:45:31;;;;;;;;;;;;;;;;;;5158962;27;45454;-69
2021/12/16 12:47:57;;;;;;;;;;;;;;;;;;5159689;27;45797;-69
2021/12/16 12:50:23;;;;;;;;;;;;;;;;;;5163339;27;44950;-69
2021/12/16 12:52:52;;;;;;;;;;;;;;;;;;5152679;27;20450;-68
2021/12/16 12:55:18;;;;;;;;;;;;;;;;;;5152783;27;44663;-69
2021/12/16 12:57:44;;;;;;;;;;;;;;;;;;5163175;27;44333;-68
2021/12/16 13:00:11;;;;;;;;;;;;;;;;;;5156497;27;44738;-69
2021/12/16 13:02:37;;;;;;;;;;;;;;;;;;5159513;27;44763;-68
2021/12/16 13:05:04;;;;;;;;;;;;;;;;;;5151675;27;47014;-68
2021/12/16 13:07:30;;;;;;;;;;;;;;;;;;5157564;27;45946;-68
2021/12/16 13:09:57;;;;;;;;;;;;;;;;;;5154437;27;43565;-68
2021/12/16 13:12:31;;;;;;;;;;;;;;;;;;5161132;27;45575;-68
2021/12/16 13:15:08;;;;;;;;;;;;;;;;;;5156657;27;45823;-68
2021/12/16 13:23:29;;;;;;;;;;;;;;;;;;5149506;27;44792;-68
2021/12/16 13:31:04;;;;;;;;;;;;;;;;;;5148927;27;43258;-68
2021/12/16 13:33:34;;;;;;;;;;;;;;;;;;5149226;27;44324;-67
2021/12/16 13:36:04;;;;;;;;;;;;;;;;;;5148531;27;45874;-68
2021/12/16 13:38:31;;;;;;;;;;;;;;;;;;5148151;27;44666;-68
2021/12/16 13:40:57;;;;;;;;;;;;;;;;;;5162070;27;42875;-68
2021/12/16 13:43:23;;;;;;;;;;;;;;;;;;5150513;27;45220;-68
2021/12/16 13:45:57;;;;;;;;;;;;;;;;;;5152165;27;44207;-68
2021/12/16 14:02:00;;;;;;;;;;;;;;;;;;5152173;27;45395;-67
2021/12/16 14:04:42;;;;;;;;;;;;;;;;;;5168264;27;43133;-68
2021/12/16 14:09:46;;;;;;;;;;;;;;;;;;5162835;27;45799;-67
2021/12/16 14:17:16;;;;;;;;;;;;;;;;;;5169392;27;44553;-68
2021/12/16 14:38:51;;;;;;;;;;;;;;;;;;5159273;27;44504;-68
2021/12/16 14:41:39;;;;;;;;;;;;;;;;;;5151327;27;43877;-67
2021/12/16 14:46:46;;;;;;;;;;;;;;;;;;5172076;27;45752;-69
2021/12/16 14:49:12;;;;;;;;;;;;;;;;;;5166004;27;43511;-68
2021/12/16 14:51:38;;;;;;;;;;;;;;;;;;5163810;27;45958;-69
2021/12/16 14:54:07;;;;;;;;;;;;;;;;;;5159237;27;44641;-68
2021/12/16 14:56:33;;;;;;;;;;;;;;;;;;5153669;27;44567;-69
2021/12/16 14:58:59;;;;;;;;;;;;;;;;;;5164526;27;45860;-68
2021/12/16 15:01:25;;;;;;;;;;;;;;;;;;5172064;27;42130;-68
2021/12/16 15:03:52;;;;;;;;;;;;;;;;;;5151473;27;42753;-68
2021/12/16 15:06:22;;;;;;;;;;;;;;;;;;5158348;27;44768;-68
2021/12/16 15:08:55;;;;;;;;;;;;;;;;;;5164882;27;44773;-68
2021/12/16 15:11:29;;;;;;;;;;;;;;;;;;5160066;27;44591;-68
2021/12/16 15:14:01;;;;;;;;;;;;;;;;;;5159197;27;45185;-69
2021/12/16 15:16:42;;;;;;;;;;;;;;;;;;5153636;27;45471;-69
2021/12/16 15:34:53;;;;;;;;;;;;;;;;;;5151719;27;46005;-69
2021/12/16 15:36:29;;;;;;;;;;;;;;;;;;5171806;27;45693;-69
2021/12/16 15:44:08;;;;;;;;;;;;;;;;;;5169727;27;44815;-68
2021/12/16 15:46:35;;;;;;;;;;;;;;;;;;5154898;27;45613;-69
2021/12/16 15:49:01;;;;;;;;;;;;;;;;;;5162772;27;45706;-69
2021/12/16 15:51:27;;;;;;;;;;;;;;;;;;5163691;27;43595;-69
2021/12/16 15:53:56;;;;;;;;;;;;;;;;;;5154516;27;44352;-68
2021/12/16 15:56:22;;;;;;;;;;;;;;;;;;5163712;27;44661;-68
2021/12/16 15:58:49;;;;;;;;;;;;;;;;;;5149626;27;43608;-69
2021/12/16 16:01:15;;;;;;;;;;;;;;;;;;5149935;27;44685;-68
2021/12/16 16:03:42;;;;;;;;;;;;;;;;;;5152026;27;45122;-68
2021/12/16 16:06:08;;;;;;;;;;;;;;;;;;5153678;27;44742;-68
2021/12/16 16:08:34;;;;;;;;;;;;;;;;;;5150146;27;44201;-68
2021/12/16 16:11:01;;;;;;;;;;;;;;;;;;5154745;27;44768;-69
2021/12/16 16:13:27;;;;;;;;;;;;;;;;;;5170331;27;45416;-69
2021/12/16 16:15:55;;;;;;;;;;;;;;;;;;5167312;27;44768;-68
2021/12/16 16:20:56;;;;;;;;;;;;;;;;;;5171026;27;45761;-69
2021/12/16 16:23:24;;;;;;;;;;;;;;;;;;5149439;27;43544;-70
2021/12/16 16:25:50;;;;;;;;;;;;;;;;;;5149319;27;41592;-69
2021/12/16 16:28:17;;;;;;;;;;;;;;;;;;5149451;27;45797;-69
2021/12/16 16:30:43;;;;;;;;;;;;;;;;;;5149238;27;44703;-69
2021/12/16 16:33:09;;;;;;;;;;;;;;;;;;5149907;27;45511;-69
2021/12/16 16:35:35;;;;;;;;;;;;;;;;;;5148755;27;45040;-69
2021/12/16 16:38:02;;;;;;;;;;;;;;;;;;5149332;27;44663;-69
2021/12/16 16:40:28;;;;;;;;;;;;;;;;;;5150235;27;45407;-68
2021/12/16 16:42:55;;;;;;;;;;;;;;;;;;5149688;27;45663;-69
2021/12/16 16:45:23;;;;;;;;;;;;;;;;;;5148761;27;44671;-68
2021/12/16 16:47:53;;;;;;;;;;;;;;;;;;5149552;27;43677;-70
2021/12/16 16:50:19;;;;;;;;;;;;;;;;;;5148954;27;45024;-68
2021/12/16 16:52:46;;;;;;;;;;;;;;;;;;5149322;27;44466;-68
2021/12/16 16:55:12;;;;;;;;;;;;;;;;;;5149873;27;44501;-69
2021/12/16 16:57:38;;;;;;;;;;;;;;;;;;5149432;27;43581;-68
2021/12/16 17:00:04;;;;;;;;;;;;;;;;;;5148788;27;44332;-69
2021/12/16 17:02:31;;;;;;;;;;;;;;;;;;5149771;27;44744;-68
2021/12/16 17:04:57;;;;;;;;;;;;;;;;;;5148916;27;44334;-68
2021/12/16 17:07:23;;;;;;;;;;;;;;;;;;5148412;27;45161;-69
2021/12/16 17:09:49;;;;;;;;;;;;;;;;;;5149268;27;43710;-69
2021/12/16 17:12:16;;;;;;;;;;;;;;;;;;5150337;27;44255;-69
2021/12/16 17:14:48;;;;;;;;;;;;;;;;;;5169384;27;43515;-68
2021/12/16 17:17:23;;;;;;;;;;;;;;;;;;5169972;27;44068;-68
2021/12/16 17:19:49;;;;;;;;;;;;;;;;;;5169933;27;44683;-68
2021/12/16 17:22:15;;;;;;;;;;;;;;;;;;5169989;27;45722;-68
2021/12/16 17:24:42;;;;;;;;;;;;;;;;;;5169892;27;43523;-68
2021/12/16 17:27:09;;;;;;;;;;;;;;;;;;5170726;27;44680;-68
2021/12/16 17:29:35;;;;;;;;;;;;;;;;;;5172321;27;43694;-68
2021/12/16 17:32:02;;;;;;;;;;;;;;;;;;5173627;27;45426;-68
2021/12/16 17:34:28;;;;;;;;;;;;;;;;;;5172681;27;45781;-68
2021/12/16 17:36:54;;;;;;;;;;;;;;;;;;5173471;27;43787;-68
2021/12/16 17:39:20;;;;;;;;;;;;;;;;;;5173225;27;42989;-68
2021/12/16 17:41:47;;;;;;;;;;;;;;;;;;5172606;27;45784;-69
2021/12/16 17:44:13;;;;;;;;;;;;;;;;;;5173410;27;44854;-69
2021/12/16 17:46:39;;;;;;;;;;;;;;;;;;5168097;27;45432;-70
2021/12/16 17:49:05;;;;;;;;;;;;;;;;;;5151924;27;42411;-68
2021/12/16 17:51:32;;;;;;;;;;;;;;;;;;5151909;27;44527;-68
2021/12/16 17:53:59;;;;;;;;;;;;;;;;;;5151214;27;45946;-68
2021/12/16 17:56:26;;;;;;;;;;;;;;;;;;5152528;27;43712;-68
2021/12/16 17:58:52;;;;;;;;;;;;;;;;;;5152334;27;44429;-68
2021/12/16 18:01:20;;;;;;;;;;;;;;;;;;5152182;27;44856;-71
2021/12/16 18:03:46;;;;;;;;;;;;;;;;;;5152907;27;43687;-68
2021/12/16 18:06:13;;;;;;;;;;;;;;;;;;5151581;27;45124;-68
2021/12/16 18:08:39;;;;;;;;;;;;;;;;;;5152670;27;44700;-69
2021/12/16 18:11:05;;;;;;;;;;;;;;;;;;5152024;27;44316;-69
2021/12/16 18:13:31;;;;;;;;;;;;;;;;;;5151180;27;44925;-69
2021/12/16 18:15:57;;;;;;;;;;;;;;;;;;5151672;27;43734;-68
2021/12/16 18:18:25;;;;;;;;;;;;;;;;;;5151747;27;44330;-69
2021/12/16 18:20:53;;;;;;;;;;;;;;;;;;5151402;27;44716;-69
2021/12/16 18:23:19;;;;;;;;;;;;;;;;;;5152023;27;44726;-69
2021/12/16 18:25:45;;;;;;;;;;;;;;;;;;5151671;27;45450;-69
2021/12/16 18:28:11;;;;;;;;;;;;;;;;;;5151510;27;44687;-69
2021/12/16 18:30:38;;;;;;;;;;;;;;;;;;5151226;27;42528;-70
2021/12/16 18:33:04;;;;;;;;;;;;;;;;;;5152045;27;45783;-70
2021/12/16 18:35:30;;;;;;;;;;;;;;;;;;5151213;27;44992;-70
2021/12/16 18:37:57;;;;;;;;;;;;;;;;;;5151977;27;44662;-70
2021/12/16 18:40:23;;;;;;;;;;;;;;;;;;5150699;27;45702;-70
2021/12/16 18:42:49;;;;;;;;;;;;;;;;;;5151670;27;43505;-70
2021/12/16 18:45:15;;;;;;;;;;;;;;;;;;5151172;27;44592;-70
2021/12/16 18:47:54;;;;;;;;;;;;;;;;;;5150274;27;44883;-70
2021/12/16 18:55:37;;;;;;;;;;;;;;;;;;5151364;27;44795;-71
2021/12/16 18:58:03;;;;;;;;;;;;;;;;;;5150626;27;44215;-70